Time;durP1;ratioP1;P1;durP2;ratioP2;P2;SDS_P1;SDS_P2;PMS_P1;PMS_P2;Temp;Humidity;BMP_temperature;BMP_pressure;BME280_temperature;BME280_humidity;BME280_pressure;Samples;Min_cycle;Max_cycle;Signal;HPM_P1;HPM_P2
2022/08/17 00:00:27;;;;;;;1.57;0.93;;;17.40;99.90;;;;;;5082317;28;20463;-83
2022/08/17 00:03:07;;;;;;;1.00;0.90;;;17.40;99.90;;;;;;5082748;28;20495;-83
2022/08/17 00:05:38;;;;;;;1.33;1.13;;;17.40;99.90;;;;;;5076383;28;20551;-83
2022/08/17 00:08:07;;;;;;;0.90;0.90;;;17.50;99.90;;;;;;5076531;28;20458;-85
2022/08/17 00:10:35;;;;;;;0.90;0.90;;;17.40;99.90;;;;;;5077975;28;20471;-83
2022/08/17 00:13:06;;;;;;;1.20;1.10;;;17.40;99.90;;;;;;5085212;28;20472;-84
2022/08/17 00:15:33;;;;;;;1.10;1.00;;;17.40;99.90;;;;;;5073295;28;20553;-83
2022/08/17 00:18:00;;;;;;;1.63;0.90;;;17.40;99.90;;;;;;5084807;28;20473;-84
2022/08/17 00:20:27;;;;;;;1.30;0.90;;;17.40;99.90;;;;;;5089045;28;20473;-83
2022/08/17 00:23:04;;;;;;;2.80;1.20;;;17.30;99.90;;;;;;5077958;28;21056;-82
2022/08/17 00:25:32;;;;;;;1.10;1.10;;;17.30;99.90;;;;;;5079352;28;20466;-83
2022/08/17 00:27:59;;;;;;;1.53;0.80;;;17.20;99.90;;;;;;5084443;28;20550;-81
2022/08/17 00:30:26;;;;;;;3.47;1.57;;;17.20;99.90;;;;;;5081960;28;20808;-82
2022/08/17 00:32:53;;;;;;;1.70;1.17;;;17.20;99.90;;;;;;5082758;28;20463;-82
2022/08/17 00:35:23;;;;;;;3.53;1.40;;;17.10;99.90;;;;;;5082872;28;20515;-82
2022/08/17 00:37:50;;;;;;;1.27;1.17;;;17.00;99.90;;;;;;5081496;28;20457;-84
2022/08/17 00:40:18;;;;;;;4.73;1.10;;;17.00;99.90;;;;;;5079998;28;20854;-83
2022/08/17 00:42:48;;;;;;;1.70;1.03;;;16.90;99.90;;;;;;5076286;28;20505;-82
2022/08/17 00:45:19;;;;;;;1.00;0.80;;;16.90;99.90;;;;;;5078734;28;20466;-83
2022/08/17 00:47:46;;;;;;;0.70;0.70;;;16.90;99.90;;;;;;5076432;28;20448;-83
2022/08/17 00:50:16;;;;;;;0.80;0.70;;;16.90;99.90;;;;;;5084456;28;20457;-84
2022/08/17 00:52:50;;;;;;;1.63;0.97;;;16.90;99.90;;;;;;5081850;28;20446;-82
2022/08/17 00:55:18;;;;;;;1.70;1.60;;;16.80;99.90;;;;;;5078636;28;20984;-82
2022/08/17 00:57:49;;;;;;;2.37;1.70;;;16.80;99.90;;;;;;5078896;28;20458;-81
2022/08/17 01:00:25;;;;;;;1.30;1.20;;;16.70;99.90;;;;;;5076454;28;20490;-83
2022/08/17 01:02:57;;;;;;;1.27;0.97;;;16.70;99.90;;;;;;5076438;28;20483;-83
2022/08/17 01:05:27;;;;;;;1.73;1.20;;;16.70;99.90;;;;;;5077681;28;20467;-83
2022/08/17 01:07:54;;;;;;;2.73;1.00;;;16.70;99.90;;;;;;5078143;28;20509;-84
2022/08/17 01:10:35;;;;;;;1.00;0.90;;;16.60;99.90;;;;;;5075506;28;20591;-84
2022/08/17 01:13:05;;;;;;;2.33;1.00;;;16.50;99.90;;;;;;5078519;28;20556;-82
2022/08/17 01:15:36;;;;;;;1.40;1.10;;;16.50;99.90;;;;;;5075745;28;20887;-82
2022/08/17 01:18:04;;;;;;;1.03;0.93;;;16.40;99.90;;;;;;5080761;28;20825;-82
2022/08/17 01:20:31;;;;;;;2.03;1.20;;;16.40;99.90;;;;;;5076906;28;20470;-84
2022/08/17 01:23:00;;;;;;;2.00;1.10;;;16.40;99.90;;;;;;5078944;28;20924;-84
2022/08/17 01:25:28;;;;;;;1.63;1.27;;;16.30;99.90;;;;;;5072550;28;20479;-85
2022/08/17 01:27:55;;;;;;;2.30;1.10;;;16.30;99.90;;;;;;5080280;28;20462;-83
2022/08/17 01:30:22;;;;;;;3.07;1.10;;;16.30;99.90;;;;;;5076508;28;20532;-85
2022/08/17 01:32:50;;;;;;;1.00;0.90;;;16.50;99.90;;;;;;5079080;28;20464;-83
2022/08/17 01:35:17;;;;;;;1.37;1.10;;;16.60;99.90;;;;;;5073044;28;20466;-83
2022/08/17 01:37:44;;;;;;;0.80;0.80;;;16.50;99.90;;;;;;5073754;28;20463;-83
2022/08/17 01:40:22;;;;;;;2.70;1.83;;;16.30;99.90;;;;;;5075831;28;20517;-83
2022/08/17 01:42:55;;;;;;;1.63;1.47;;;16.20;99.90;;;;;;5081546;28;21002;-84
2022/08/17 01:45:26;;;;;;;2.93;1.40;;;16.30;99.90;;;;;;5074536;28;20464;-83
2022/08/17 01:47:54;;;;;;;1.60;1.13;;;16.30;99.90;;;;;;5078950;28;20466;-83
2022/08/17 01:50:24;;;;;;;4.10;2.13;;;16.40;99.90;;;;;;5078660;28;20455;-81
2022/08/17 01:52:55;;;;;;;1.10;1.00;;;16.40;99.90;;;;;;5080644;28;20447;-83
2022/08/17 01:55:31;;;;;;;1.97;1.23;;;16.30;99.90;;;;;;5072772;28;20613;-84
2022/08/17 01:57:58;;;;;;;1.80;1.33;;;16.30;99.90;;;;;;5077728;28;21097;-82
2022/08/17 02:00:27;;;;;;;1.13;1.00;;;16.20;99.90;;;;;;5072128;28;21044;-83
2022/08/17 02:02:54;;;;;;;0.90;0.80;;;16.30;99.90;;;;;;5072808;28;20484;-84
2022/08/17 02:05:21;;;;;;;1.93;1.03;;;16.30;99.90;;;;;;5077748;28;20463;-82
2022/08/17 02:07:48;;;;;;;1.30;1.17;;;16.30;99.90;;;;;;5072464;28;20472;-84
2022/08/17 02:10:15;;;;;;;1.00;1.00;;;16.20;99.90;;;;;;5080691;28;20462;-83
2022/08/17 02:12:43;;;;;;;1.57;1.47;;;16.20;99.90;;;;;;5075081;28;20467;-83
2022/08/17 02:15:13;;;;;;;0.93;0.83;;;16.10;99.90;;;;;;5073603;28;20482;-85
2022/08/17 02:17:41;;;;;;;0.80;0.80;;;16.00;99.90;;;;;;5077924;28;20459;-85
2022/08/17 02:20:09;;;;;;;2.13;1.13;;;15.90;99.90;;;;;;5074814;28;20508;-83
2022/08/17 02:22:39;;;;;;;1.23;1.07;;;15.90;99.90;;;;;;5075336;28;20533;-83
2022/08/17 02:25:09;;;;;;;1.43;0.80;;;15.90;99.90;;;;;;5080073;28;20463;-82
2022/08/17 02:27:37;;;;;;;1.10;1.00;;;15.90;99.90;;;;;;5079053;28;20463;-82
2022/08/17 02:30:07;;;;;;;1.10;1.00;;;15.80;99.90;;;;;;5073976;28;20471;-83
2022/08/17 02:32:34;;;;;;;1.20;1.10;;;15.80;99.90;;;;;;5080069;28;20462;-82
2022/08/17 02:35:02;;;;;;;1.20;1.20;;;15.70;99.90;;;;;;5083658;28;20468;-82
2022/08/17 02:37:30;;;;;;;2.33;1.23;;;15.70;99.90;;;;;;5073442;28;20962;-83
2022/08/17 02:39:58;;;;;;;1.43;0.90;;;15.70;99.90;;;;;;5080128;28;20545;-84
2022/08/17 02:42:27;;;;;;;1.90;1.13;;;15.70;99.90;;;;;;5077386;28;20486;-82
2022/08/17 02:44:54;;;;;;;1.80;1.63;;;15.80;99.90;;;;;;5079605;28;20486;-82
2022/08/17 02:47:23;;;;;;;1.30;1.20;;;15.80;99.90;;;;;;5077863;28;21151;-83
2022/08/17 02:49:50;;;;;;;1.40;1.30;;;15.80;99.90;;;;;;5081847;28;20935;-82
2022/08/17 02:52:17;;;;;;;2.50;1.40;;;15.90;99.90;;;;;;5091201;28;20598;-82
2022/08/17 02:54:44;;;;;;;1.20;0.80;;;16.00;99.90;;;;;;5093694;28;20464;-82
2022/08/17 02:57:11;;;;;;;2.03;0.90;;;16.00;99.90;;;;;;5084992;28;20481;-83
2022/08/17 02:59:38;;;;;;;1.40;1.00;;;16.20;99.90;;;;;;5084776;28;20518;-83
2022/08/17 03:02:08;;;;;;;1.17;1.00;;;16.20;99.90;;;;;;5076141;28;20470;-82
2022/08/17 03:04:36;;;;;;;1.47;1.33;;;16.20;99.90;;;;;;5083886;28;20536;-81
2022/08/17 03:07:04;;;;;;;0.60;0.60;;;16.10;99.90;;;;;;5093070;28;20457;-83
2022/08/17 03:09:31;;;;;;;2.00;0.90;;;16.00;99.90;;;;;;5089316;28;20958;-84
2022/08/17 03:12:04;;;;;;;1.17;0.90;;;15.80;99.90;;;;;;5087720;28;20527;-82
2022/08/17 03:14:32;;;;;;;1.10;1.10;;;15.90;99.90;;;;;;5084692;28;20526;-82
2022/08/17 03:16:59;;;;;;;1.00;1.00;;;15.70;99.90;;;;;;5085205;28;20550;-82
2022/08/17 03:19:26;;;;;;;1.27;0.93;;;15.60;99.90;;;;;;5082206;28;20817;-84
2022/08/17 03:21:54;;;;;;;1.23;1.10;;;15.60;99.90;;;;;;5084142;28;20915;-84
2022/08/17 03:24:21;;;;;;;1.57;1.00;;;15.60;99.90;;;;;;5082394;28;20540;-82
2022/08/17 03:26:48;;;;;;;1.13;1.10;;;15.50;99.90;;;;;;5088271;28;20848;-83
2022/08/17 03:29:18;;;;;;;1.13;1.00;;;15.60;99.90;;;;;;5086486;28;20465;-84
2022/08/17 03:31:45;;;;;;;1.10;1.00;;;15.50;99.90;;;;;;5080781;28;20455;-83
2022/08/17 03:34:12;;;;;;;4.93;1.00;;;15.40;99.90;;;;;;5078990;28;20565;-82
2022/08/17 03:36:39;;;;;;;1.20;1.10;;;15.40;99.90;;;;;;5079223;28;21066;-84
2022/08/17 03:39:08;;;;;;;1.20;1.10;;;15.40;99.90;;;;;;5081445;28;20466;-84
2022/08/17 03:41:36;;;;;;;1.30;0.77;;;15.40;99.90;;;;;;5085136;28;20494;-82
2022/08/17 03:44:03;;;;;;;1.80;1.40;;;15.40;99.90;;;;;;5081869;28;20532;-83
2022/08/17 03:57:41;;;;;;;1.43;1.33;;;15.20;99.90;;;;;;5078105;28;20508;-83
2022/08/17 04:00:10;;;;;;;4.20;1.10;;;15.30;99.90;;;;;;5076411;28;20472;-82
2022/08/17 04:02:37;;;;;;;2.47;1.70;;;15.30;99.90;;;;;;5074992;28;21226;-82
2022/08/17 04:05:04;;;;;;;1.50;1.40;;;15.40;99.90;;;;;;5081832;28;20460;-84
2022/08/17 04:07:32;;;;;;;1.13;1.03;;;15.40;99.90;;;;;;5074395;28;20470;-82
2022/08/17 04:10:00;;;;;;;1.70;1.60;;;15.30;99.90;;;;;;5079137;28;20478;-82
2022/08/17 04:12:29;;;;;;;2.37;1.93;;;15.40;99.90;;;;;;5076953;28;20474;-81
2022/08/17 04:14:56;;;;;;;1.73;1.03;;;15.40;99.90;;;;;;5081335;28;20461;-82
2022/08/17 04:17:26;;;;;;;2.03;1.13;;;15.40;99.90;;;;;;5079583;28;20859;-82
2022/08/17 04:19:54;;;;;;;1.97;1.00;;;15.40;99.90;;;;;;5080420;28;20462;-83
2022/08/17 04:22:21;;;;;;;3.13;1.00;;;15.50;99.90;;;;;;5078181;28;21012;-83
2022/08/17 04:24:48;;;;;;;1.60;1.13;;;15.50;99.90;;;;;;5079573;28;20531;-82
2022/08/17 04:27:17;;;;;;;1.70;1.00;;;15.40;99.90;;;;;;5077113;28;20552;-84
2022/08/17 04:29:44;;;;;;;4.70;1.40;;;15.50;99.90;;;;;;5084142;28;20571;-83
2022/08/17 04:32:11;;;;;;;2.40;1.60;;;15.60;99.90;;;;;;5081473;28;20464;-83
2022/08/17 04:34:38;;;;;;;1.40;1.30;;;15.70;99.90;;;;;;5080046;28;20474;-82
2022/08/17 04:37:06;;;;;;;2.70;2.00;;;15.80;99.90;;;;;;5077935;28;21104;-84
2022/08/17 04:39:33;;;;;;;1.33;1.00;;;15.70;99.90;;;;;;5078451;28;20466;-85
2022/08/17 04:42:15;;;;;;;1.53;1.43;;;15.70;99.90;;;;;;5075797;28;20531;-89
2022/08/17 04:44:44;;;;;;;3.03;2.00;;;15.70;99.90;;;;;;5077218;28;20494;-89
2022/08/17 04:47:11;;;;;;;1.33;1.23;;;15.70;99.90;;;;;;5080426;28;20455;-83
2022/08/17 04:49:38;;;;;;;2.03;1.57;;;15.80;99.90;;;;;;5077523;28;20470;-83
2022/08/17 04:52:05;;;;;;;1.47;1.37;;;15.90;99.90;;;;;;5074967;28;20490;-84
2022/08/17 04:54:32;;;;;;;1.23;1.07;;;16.00;99.90;;;;;;5077854;28;20921;-83
2022/08/17 04:56:59;;;;;;;3.63;0.93;;;16.10;99.90;;;;;;5074927;28;20527;-82
2022/08/17 04:59:26;;;;;;;3.10;1.10;;;16.10;99.90;;;;;;5081035;28;20454;-85
2022/08/17 05:01:54;;;;;;;1.97;1.17;;;16.30;99.90;;;;;;5083146;28;20826;-84
2022/08/17 05:04:24;;;;;;;1.20;0.90;;;16.50;99.90;;;;;;5076814;28;20478;-84
2022/08/17 05:06:53;;;;;;;1.20;1.00;;;16.60;99.90;;;;;;5077250;28;20517;-83
2022/08/17 05:09:20;;;;;;;1.37;1.27;;;16.70;99.90;;;;;;5080273;28;20953;-84
2022/08/17 05:11:47;;;;;;;1.90;1.33;;;16.90;99.90;;;;;;5072550;28;20515;-83
2022/08/17 05:14:14;;;;;;;1.50;1.40;;;17.00;99.90;;;;;;5064341;28;20471;-83
2022/08/17 05:16:41;;;;;;;1.77;1.27;;;16.90;99.90;;;;;;5070212;28;20553;-82
2022/08/17 05:19:10;;;;;;;4.20;1.50;;;16.90;99.90;;;;;;5069647;28;20458;-84
2022/08/17 05:21:37;;;;;;;1.30;1.20;;;17.10;99.90;;;;;;5067126;28;20509;-84
2022/08/17 05:24:04;;;;;;;1.20;0.93;;;17.10;99.90;;;;;;5080984;28;20482;-83
2022/08/17 05:26:31;;;;;;;2.17;1.77;;;17.10;99.90;;;;;;5069846;28;20451;-84
2022/08/17 05:29:00;;;;;;;3.07;1.17;;;17.00;99.90;;;;;;5072719;28;21263;-84
2022/08/17 05:31:27;;;;;;;2.50;2.30;;;17.00;99.90;;;;;;5072319;28;20554;-84
2022/08/17 05:33:54;;;;;;;1.37;1.13;;;17.00;99.90;;;;;;5070289;28;20491;-84
2022/08/17 05:36:23;;;;;;;2.27;1.63;;;17.10;99.90;;;;;;5073637;28;20864;-82
2022/08/17 05:38:50;;;;;;;1.33;1.30;;;17.40;99.90;;;;;;5067323;28;20522;-84
2022/08/17 05:41:17;;;;;;;7.20;1.83;;;17.60;99.90;;;;;;5072944;28;20554;-84
2022/08/17 05:43:44;;;;;;;2.60;1.70;;;17.70;99.90;;;;;;5073397;28;20530;-85
2022/08/17 05:46:17;;;;;;;1.50;1.40;;;17.80;99.90;;;;;;5076891;28;20476;-84
2022/08/17 05:48:47;;;;;;;4.00;1.30;;;17.70;99.90;;;;;;5071184;28;20460;-84
2022/08/17 05:51:49;;;;;;;1.57;1.10;;;17.80;99.90;;;;;;5083549;28;20464;-83
2022/08/17 05:54:38;;;;;;;1.77;1.27;;;18.00;99.90;;;;;;5002073;28;20942;-83
2022/08/17 05:57:25;;;;;;;2.60;1.70;;;18.20;99.90;;;;;;5070905;28;20492;-83
2022/08/17 06:00:00;;;;;;;1.53;1.13;;;18.40;99.90;;;;;;5073639;28;20508;-84
2022/08/17 06:02:37;;;;;;;2.40;1.20;;;18.40;99.90;;;;;;5073746;28;20466;-83
2022/08/17 06:05:16;;;;;;;2.10;1.77;;;18.60;99.90;;;;;;5072551;28;20499;-84
2022/08/17 06:07:49;;;;;;;1.77;1.67;;;18.90;99.90;;;;;;5078840;28;20462;-84
2022/08/17 06:10:26;;;;;;;3.20;1.40;;;19.10;99.90;;;;;;5076286;28;20469;-85
2022/08/17 06:13:03;;;;;;;1.10;1.00;;;19.30;99.90;;;;;;5069217;28;21063;-84
2022/08/17 06:15:35;;;;;;;1.43;1.33;;;19.30;99.90;;;;;;5070078;28;21033;-84
2022/08/17 06:18:06;;;;;;;2.00;1.80;;;19.20;99.90;;;;;;5071965;28;20471;-85
2022/08/17 06:20:45;;;;;;;1.50;1.10;;;19.20;99.90;;;;;;5073178;28;20466;-84
2022/08/17 06:23:24;;;;;;;1.50;1.40;;;19.40;99.90;;;;;;5068992;28;20463;-84
2022/08/17 06:26:02;;;;;;;1.67;1.57;;;19.40;99.90;;;;;;5063085;28;20470;-84
2022/08/17 06:28:37;;;;;;;1.67;1.57;;;19.60;99.90;;;;;;5070407;28;20474;-84
2022/08/17 06:31:18;;;;;;;1.60;1.50;;;19.80;99.90;;;;;;5063767;28;20546;-83
2022/08/17 06:33:46;;;;;;;3.00;1.70;;;20.00;99.90;;;;;;5070454;28;20467;-83
2022/08/17 06:36:30;;;;;;;1.60;1.50;;;19.90;99.90;;;;;;5068987;28;20521;-83
2022/08/17 06:39:12;;;;;;;1.53;1.40;;;19.90;99.90;;;;;;5065987;28;20456;-84
2022/08/17 06:41:51;;;;;;;1.30;1.20;;;20.20;99.90;;;;;;5076747;28;20480;-83
2022/08/17 06:44:23;;;;;;;1.53;1.27;;;20.20;99.90;;;;;;5073190;28;21181;-82
2022/08/17 06:46:56;;;;;;;3.00;1.50;;;19.90;99.90;;;;;;5069256;28;20555;-85
2022/08/17 06:49:28;;;;;;;1.27;1.13;;;20.10;99.90;;;;;;5073916;28;20827;-85
2022/08/17 06:52:00;;;;;;;1.73;1.30;;;20.30;99.90;;;;;;5071115;28;20461;-82
2022/08/17 06:54:51;;;;;;;3.67;1.20;;;20.60;99.90;;;;;;5070278;28;20463;-83
2022/08/17 06:57:23;;;;;;;1.97;1.77;;;20.60;99.90;;;;;;5067816;28;20473;-84
2022/08/17 06:59:53;;;;;;;1.40;1.27;;;20.70;99.90;;;;;;5077254;28;20534;-84
2022/08/17 07:02:40;;;;;;;1.60;1.23;;;20.90;99.90;;;;;;5079466;28;20470;-82
2022/08/17 07:05:08;;;;;;;1.40;1.30;;;20.90;99.90;;;;;;5077392;28;20482;-82
2022/08/17 07:10:25;;;;;;;1.80;1.70;;;21.30;99.90;;;;;;5073731;28;20955;-82
2022/08/17 07:12:58;;;;;;;2.70;1.77;;;21.50;99.90;;;;;;5076808;28;20478;-83
2022/08/17 07:15:32;;;;;;;2.50;1.83;;;21.30;99.90;;;;;;5067758;28;20466;-85
2022/08/17 07:17:59;;;;;;;1.40;1.30;;;21.20;99.90;;;;;;5070221;28;20463;-83
2022/08/17 07:20:30;;;;;;;3.37;2.43;;;21.60;99.90;;;;;;5072405;28;20472;-83
2022/08/17 07:23:04;;;;;;;1.40;1.30;;;21.80;99.90;;;;;;5069930;28;21010;-85
2022/08/17 07:25:32;;;;;;;1.80;1.70;;;22.00;99.90;;;;;;5070175;28;20532;-83
2022/08/17 07:28:05;;;;;;;2.70;1.63;;;21.80;99.90;;;;;;5066757;28;20463;-82
2022/08/17 07:30:36;;;;;;;6.50;1.60;;;21.90;99.90;;;;;;5071884;28;20466;-82
2022/08/17 07:33:09;;;;;;;2.27;1.33;;;22.20;99.90;;;;;;5068467;28;20502;-84
2022/08/17 07:35:39;;;;;;;2.57;1.67;;;22.20;99.90;;;;;;5079032;28;20957;-89
2022/08/17 07:38:13;;;;;;;4.30;2.90;;;22.20;99.90;;;;;;5072134;28;20594;-85
2022/08/17 07:40:41;;;;;;;1.50;1.40;;;22.10;99.90;;;;;;5068437;28;20878;-84
2022/08/17 07:43:22;;;;;;;1.73;1.63;;;22.30;99.90;;;;;;5072759;28;21295;-85
2022/08/17 07:49:17;;;;;;;4.80;1.90;;;22.80;99.90;;;;;;5072328;28;20453;-81
2022/08/17 07:51:57;;;;;;;2.03;1.90;;;23.00;99.90;;;;;;5082267;28;20459;-83
2022/08/17 07:54:29;;;;;;;3.27;2.17;;;22.80;99.90;;;;;;5071012;28;20489;-83
2022/08/17 07:56:57;;;;;;;2.17;1.40;;;22.90;99.90;;;;;;5075900;28;20457;-84
2022/08/17 07:59:28;;;;;;;2.30;2.10;;;23.10;99.90;;;;;;5074923;28;20553;-83
2022/08/17 08:02:26;;;;;;;2.60;2.40;;;23.30;99.90;;;;;;5069829;28;20513;-82
2022/08/17 08:05:03;;;;;;;1.80;1.30;;;23.70;99.90;;;;;;5075000;28;20481;-83
2022/08/17 08:07:35;;;;;;;2.00;1.70;;;23.80;99.00;;;;;;5079671;28;20467;-81
2022/08/17 08:10:09;;;;;;;1.70;1.60;;;24.10;98.60;;;;;;5074678;28;20470;-83
2022/08/17 08:12:38;;;;;;;2.27;2.07;;;24.20;98.20;;;;;;5065140;28;20488;-83
2022/08/17 08:15:16;;;;;;;2.23;2.03;;;24.10;98.20;;;;;;5075583;28;21054;-83
2022/08/17 08:17:50;;;;;;;1.40;1.30;;;24.20;97.90;;;;;;5072945;28;20465;-93
2022/08/17 08:20:20;;;;;;;2.63;1.43;;;24.30;98.80;;;;;;5067597;28;20497;-81
2022/08/17 08:22:54;;;;;;;7.40;1.73;;;24.60;97.90;;;;;;5070460;28;20805;-83
2022/08/17 08:25:26;;;;;;;1.87;1.77;;;24.60;97.90;;;;;;5070443;28;20478;-83
2022/08/17 08:28:16;;;;;;;1.57;1.47;;;25.00;98.30;;;;;;5068478;28;20463;-84
2022/08/17 08:30:48;;;;;;;2.40;1.97;;;24.80;96.40;;;;;;5072144;28;21128;-83
2022/08/17 08:33:31;;;;;;;2.30;2.07;;;24.80;96.90;;;;;;5067345;28;20463;-83
2022/08/17 08:36:08;;;;;;;1.70;1.60;;;25.20;96.60;;;;;;5071614;28;20467;-84
2022/08/17 08:38:44;;;;;;;1.90;1.80;;;25.40;95.90;;;;;;5073352;28;20560;-83
2022/08/17 08:41:31;;;;;;;1.93;1.83;;;25.40;95.60;;;;;;5064674;28;20821;-83
2022/08/17 08:44:08;;;;;;;1.20;1.10;;;25.70;94.00;;;;;;5067894;28;20517;-83
2022/08/17 08:46:45;;;;;;;1.57;1.47;;;25.80;94.30;;;;;;5080854;28;20464;-84
2022/08/17 08:49:52;;;;;;;1.50;1.23;;;25.70;93.40;;;;;;5080135;28;21035;-84
2022/08/17 08:52:33;;;;;;;3.70;1.80;;;25.80;92.90;;;;;;5069741;28;20471;-83
2022/08/17 08:55:08;;;;;;;1.70;1.60;;;26.20;92.80;;;;;;5080380;28;20523;-83
2022/08/17 08:57:40;;;;;;;1.50;1.40;;;26.30;92.00;;;;;;5068397;28;20641;-84
2022/08/17 09:00:14;;;;;;;1.80;1.70;;;26.70;91.90;;;;;;5066455;28;20462;-84
2022/08/17 09:03:06;;;;;;;1.43;1.33;;;26.90;90.80;;;;;;5070178;28;21187;-83
2022/08/17 09:06:01;;;;;;;1.70;1.60;;;26.60;90.50;;;;;;5067884;28;20507;-84
2022/08/17 09:08:41;;;;;;;1.90;1.37;;;26.60;90.80;;;;;;5070185;28;20450;-84
2022/08/17 09:11:17;;;;;;;1.40;1.30;;;26.70;90.50;;;;;;5070351;28;20541;-83
2022/08/17 09:13:51;;;;;;;1.70;1.60;;;26.90;88.60;;;;;;5075968;28;20467;-82
2022/08/17 09:16:28;;;;;;;1.33;1.23;;;27.10;90.00;;;;;;5076260;28;21302;-83
2022/08/17 09:19:02;;;;;;;1.70;1.60;;;27.20;89.10;;;;;;5070247;28;20470;-83
2022/08/17 09:21:39;;;;;;;1.93;1.73;;;27.50;90.10;;;;;;5075371;28;20473;-84
2022/08/17 09:24:11;;;;;;;1.90;1.80;;;27.80;88.80;;;;;;5075141;28;20451;-83
2022/08/17 09:26:46;;;;;;;1.70;1.60;;;27.70;84.50;;;;;;5080875;28;20464;-84
2022/08/17 09:29:14;;;;;;;1.40;1.30;;;27.70;84.40;;;;;;5066508;28;20436;-83
2022/08/17 09:31:46;;;;;;;1.67;1.30;;;27.40;83.90;;;;;;5086348;28;20512;-84
2022/08/17 09:34:20;;;;;;;1.90;1.80;;;27.60;86.60;;;;;;5086324;28;20463;-82
2022/08/17 09:37:01;;;;;;;1.67;1.57;;;27.90;83.80;;;;;;5081189;28;20465;-83
2022/08/17 09:39:34;;;;;;;0.93;0.93;;;28.00;82.90;;;;;;5080415;28;20946;-84
2022/08/17 09:42:07;;;;;;;2.23;1.23;;;28.20;80.30;;;;;;5085740;28;21118;-83
2022/08/17 09:44:40;;;;;;;1.30;1.20;;;28.30;82.20;;;;;;5074363;28;20502;-83
2022/08/17 09:47:14;;;;;;;1.70;1.30;;;28.50;79.20;;;;;;5086582;28;20500;-85
2022/08/17 09:49:47;;;;;;;1.33;1.23;;;28.80;75.50;;;;;;5073699;28;20467;-83
2022/08/17 09:52:19;;;;;;;1.60;1.50;;;28.80;76.30;;;;;;5082362;28;20500;-85
2022/08/17 09:54:50;;;;;;;1.17;1.07;;;29.00;76.70;;;;;;5076526;28;20450;-83
2022/08/17 09:57:25;;;;;;;1.57;1.47;;;29.20;78.00;;;;;;5073874;28;21117;-86
2022/08/17 10:00:15;;;;;;;3.33;1.57;;;29.00;76.60;;;;;;5082092;28;20519;-83
2022/08/17 10:03:16;;;;;;;1.63;1.53;;;29.10;72.50;;;;;;5073194;28;20542;-83
2022/08/17 10:05:51;;;;;;;1.83;1.33;;;29.10;73.50;;;;;;5066614;28;20498;-84
2022/08/17 10:08:29;;;;;;;1.97;1.70;;;29.20;72.30;;;;;;5069619;28;20454;-84
2022/08/17 10:11:11;;;;;;;1.30;1.20;;;29.60;75.00;;;;;;5074847;28;20470;-83
2022/08/17 10:13:45;;;;;;;1.60;1.47;;;29.30;72.30;;;;;;5073610;28;20515;-84
2022/08/17 10:16:21;;;;;;;1.50;1.50;;;29.30;73.80;;;;;;5067231;28;20459;-84
2022/08/17 10:19:02;;;;;;;1.33;1.23;;;29.30;72.50;;;;;;5071576;28;20461;-84
2022/08/17 10:27:14;;;;;;;2.90;1.00;;;29.60;67.90;;;;;;5080619;28;20462;-85
2022/08/17 10:29:46;;;;;;;1.77;1.37;;;29.90;68.00;;;;;;5086229;28;20991;-84
2022/08/17 10:32:24;;;;;;;1.83;1.20;;;29.90;67.90;;;;;;5071644;28;20460;-84
2022/08/17 10:35:13;;;;;;;0.90;0.90;;;30.20;70.80;;;;;;5080347;28;20543;-86
2022/08/17 10:38:06;;;;;;;1.10;1.00;;;30.30;65.00;;;;;;5068360;28;20535;-84
2022/08/17 10:40:38;;;;;;;1.00;0.90;;;30.20;61.20;;;;;;5073663;28;20460;-83
2022/08/17 10:43:21;;;;;;;1.23;1.13;;;30.40;61.80;;;;;;5066169;28;20499;-83
2022/08/17 10:45:56;;;;;;;1.33;0.87;;;30.50;62.40;;;;;;5066528;28;20484;-83
2022/08/17 10:48:30;;;;;;;0.90;0.90;;;30.70;61.30;;;;;;5068042;28;20532;-84
2022/08/17 10:51:35;;;;;;;1.63;1.33;;;30.70;61.60;;;;;;5070911;28;20462;-85
2022/08/17 10:54:04;;;;;;;1.53;1.43;;;30.60;60.00;;;;;;5070357;28;20518;-83
2022/08/17 10:56:45;;;;;;;1.30;1.20;;;30.40;61.20;;;;;;5064831;28;20508;-83
2022/08/17 10:59:49;;;;;;;1.50;1.33;;;30.60;59.30;;;;;;5065888;28;20454;-83
2022/08/17 11:02:24;;;;;;;1.63;1.53;;;30.70;58.70;;;;;;5074286;28;20511;-84
2022/08/17 11:05:01;;;;;;;1.97;1.00;;;30.80;59.10;;;;;;5067438;28;20598;-85
2022/08/17 11:07:43;;;;;;;1.37;1.03;;;30.90;59.10;;;;;;5070156;28;20450;-83
2022/08/17 11:10:30;;;;;;;1.33;1.20;;;31.00;57.50;;;;;;5072828;28;20563;-86
2022/08/17 11:13:03;;;;;;;1.50;1.40;;;31.10;57.50;;;;;;5073733;28;20464;-84
2022/08/17 11:15:48;;;;;;;2.60;1.07;;;31.20;56.10;;;;;;5073641;28;20839;-84
2022/08/17 11:18:52;;;;;;;1.43;1.33;;;31.00;58.30;;;;;;5071334;28;20471;-84
2022/08/17 11:21:38;;;;;;;1.37;1.17;;;31.00;56.20;;;;;;5069870;28;20455;-85
2022/08/17 11:24:18;;;;;;;1.30;1.20;;;31.20;56.60;;;;;;5071425;28;20540;-85
2022/08/17 11:27:07;;;;;;;2.77;1.60;;;31.30;55.50;;;;;;5086552;28;20521;-82
2022/08/17 11:29:38;;;;;;;1.40;1.17;;;31.20;55.50;;;;;;5082238;28;20467;-85
2022/08/17 11:32:12;;;;;;;5.90;1.20;;;31.50;57.60;;;;;;5087069;28;20470;-84
2022/08/17 11:34:42;;;;;;;0.93;0.93;;;31.50;55.00;;;;;;5080316;28;20560;-85
2022/08/17 11:37:32;;;;;;;1.30;0.93;;;31.40;53.40;;;;;;5084836;28;20467;-83
2022/08/17 11:40:36;;;;;;;1.43;0.90;;;31.40;54.40;;;;;;5087501;28;20454;-84
2022/08/17 11:43:40;;;;;;;1.10;1.00;;;31.50;53.60;;;;;;5105502;28;20488;-85
2022/08/17 11:46:24;;;;;;;1.53;1.43;;;31.50;52.70;;;;;;5085800;28;20509;-85
2022/08/17 11:52:10;;;;;;;3.57;2.20;;;31.80;54.40;;;;;;5078077;28;20434;-85
2022/08/17 11:54:41;;;;;;;1.63;0.90;;;31.90;54.50;;;;;;5077420;28;20467;-83
2022/08/17 11:58:00;;;;;;;1.30;1.20;;;32.00;56.60;;;;;;5070242;28;21164;-84
2022/08/17 12:00:53;;;;;;;1.00;1.00;;;32.10;51.80;;;;;;5019191;28;20569;-86
2022/08/17 12:03:56;;;;;;;1.10;1.00;;;32.00;53.00;;;;;;5013699;28;20464;-85
2022/08/17 12:06:31;;;;;;;3.30;1.73;;;32.00;53.60;;;;;;5060754;28;20536;-86
2022/08/17 12:09:05;;;;;;;1.20;1.10;;;32.00;55.30;;;;;;5078161;28;20459;-84
2022/08/17 12:11:41;;;;;;;1.20;1.10;;;31.60;50.40;;;;;;5074753;28;21322;-84
2022/08/17 12:14:12;;;;;;;1.00;0.83;;;31.40;51.40;;;;;;5077014;28;20459;-85
2022/08/17 12:16:43;;;;;;;1.13;1.03;;;31.40;50.10;;;;;;5081651;28;20440;-85
2022/08/17 12:19:21;;;;;;;1.00;1.00;;;31.60;48.30;;;;;;5070593;28;20475;-84
2022/08/17 12:21:56;;;;;;;0.73;0.70;;;31.80;47.80;;;;;;5069479;28;20458;-83
2022/08/17 12:24:47;;;;;;;1.00;1.00;;;31.90;49.00;;;;;;5084716;28;20462;-83
2022/08/17 12:27:23;;;;;;;1.20;0.90;;;31.90;44.40;;;;;;5084025;28;20483;-83
2022/08/17 12:29:51;;;;;;;1.00;0.90;;;32.00;45.40;;;;;;5077972;28;20519;-83
2022/08/17 12:32:20;;;;;;;0.90;0.90;;;32.10;46.10;;;;;;5069645;28;20555;-84
2022/08/17 12:34:51;;;;;;;1.53;1.20;;;32.10;45.20;;;;;;5070384;28;21038;-84
2022/08/17 12:37:20;;;;;;;2.23;0.80;;;32.10;45.20;;;;;;5068640;28;20485;-85
2022/08/17 12:39:54;;;;;;;1.00;0.90;;;32.10;44.50;;;;;;5077118;28;20463;-85
2022/08/17 12:42:28;;;;;;;1.97;1.00;;;31.90;46.20;;;;;;5072945;28;20621;-82
2022/08/17 12:44:55;;;;;;;1.63;1.10;;;32.20;42.40;;;;;;5069184;28;20574;-84
2022/08/17 12:47:23;;;;;;;0.90;0.80;;;32.60;42.80;;;;;;5068925;28;20490;-80
2022/08/17 12:49:53;;;;;;;1.23;1.13;;;32.60;40.60;;;;;;5077263;28;20491;-79
2022/08/17 12:52:23;;;;;;;2.10;1.00;;;32.40;39.80;;;;;;5080017;28;20451;-80
2022/08/17 12:54:59;;;;;;;1.30;1.10;;;32.50;42.10;;;;;;5080905;28;20458;-79
2022/08/17 12:57:32;;;;;;;1.40;1.30;;;32.50;42.80;;;;;;5076395;28;20459;-82
2022/08/17 13:00:08;;;;;;;1.00;0.90;;;32.70;43.50;;;;;;5078204;28;20451;-86
2022/08/17 13:02:42;;;;;;;1.00;0.90;;;32.90;41.80;;;;;;5078654;28;20847;-84
2022/08/17 13:05:21;;;;;;;1.00;0.90;;;32.80;40.70;;;;;;5078223;28;20452;-82
2022/08/17 13:07:49;;;;;;;1.53;1.10;;;33.00;44.00;;;;;;5076109;28;20467;-82
2022/08/17 13:10:24;;;;;;;1.10;1.03;;;32.70;41.40;;;;;;5072660;28;20490;-84
2022/08/17 13:12:51;;;;;;;0.93;0.83;;;32.80;43.50;;;;;;5078654;28;20464;-82
2022/08/17 13:15:28;;;;;;;0.97;0.93;;;32.90;41.80;;;;;;5081023;28;20532;-83
2022/08/17 13:18:03;;;;;;;0.60;0.60;;;32.60;41.60;;;;;;5072683;28;20943;-82
2022/08/17 13:20:32;;;;;;;0.80;0.80;;;32.40;40.20;;;;;;5079517;28;20462;-83
2022/08/17 13:23:03;;;;;;;1.77;0.77;;;32.40;41.50;;;;;;5074995;28;20451;-83
2022/08/17 13:25:30;;;;;;;0.90;0.70;;;32.40;39.10;;;;;;5066629;28;20467;-83
2022/08/17 13:27:58;;;;;;;0.80;0.80;;;32.40;37.20;;;;;;5071099;28;20457;-83
2022/08/17 13:30:28;;;;;;;1.13;0.80;;;32.10;36.90;;;;;;5071753;28;20471;-83
2022/08/17 13:32:56;;;;;;;0.67;0.60;;;32.10;35.60;;;;;;5076357;28;20565;-84
2022/08/17 13:35:44;;;;;;;1.90;0.80;;;32.20;34.80;;;;;;5083791;28;20493;-82
2022/08/17 13:38:15;;;;;;;0.60;0.60;;;32.70;34.30;;;;;;5067469;28;20594;-82
2022/08/17 13:40:51;;;;;;;1.13;0.90;;;33.20;32.00;;;;;;5067661;28;20541;-82
2022/08/17 13:43:43;;;;;;;2.60;0.90;;;33.20;31.00;;;;;;5069512;28;21084;-82
2022/08/17 13:46:18;;;;;;;0.60;0.60;;;33.30;29.80;;;;;;5075321;28;20480;-81